createdAt,value
2023-04-05T00:00:06.346Z,22.22
2023-04-05T00:02:11.700Z,22.1
2023-04-05T00:04:17.440Z,22.2
2023-04-05T00:06:22.926Z,22.02
2023-04-05T00:08:28.421Z,22.03
2023-04-05T00:10:33.735Z,22.04
2023-04-05T00:12:38.992Z,22.23
2023-04-05T00:14:44.300Z,22
2023-04-05T00:16:49.884Z,22.1
2023-04-05T00:18:55.189Z,22.37
2023-04-05T00:21:00.425Z,22.09
2023-04-05T00:23:05.813Z,22.21
2023-04-05T00:25:11.444Z,22.13
2023-04-05T00:27:16.715Z,22.09
2023-04-05T00:29:22.042Z,22.27
2023-04-05T00:31:27.463Z,22.28
2023-04-05T00:33:32.825Z,22.28
2023-04-05T00:35:38.225Z,22.31
2023-04-05T00:37:43.675Z,22.42
2023-04-05T00:39:48.925Z,22.46
2023-04-05T00:41:54.209Z,22.38
2023-04-05T00:43:59.537Z,22.24
2023-04-05T00:46:04.963Z,22.16
2023-04-05T00:48:10.470Z,22.18
2023-04-05T00:50:15.755Z,22.13
2023-04-05T00:52:21.035Z,22.24
2023-04-05T00:54:26.258Z,22.08
2023-04-05T00:56:31.556Z,22.1
2023-04-05T00:58:37.023Z,22.12
2023-04-05T01:00:43.291Z,22.07
2023-04-05T01:02:48.665Z,22.03
2023-04-05T01:04:53.938Z,22.01
2023-04-05T01:06:59.015Z,22.04
2023-04-05T01:09:05.556Z,22.05
2023-04-05T01:11:10.584Z,22.12
2023-04-05T01:13:15.620Z,22.16
2023-04-05T01:15:20.797Z,22.18
2023-04-05T01:17:25.952Z,22.24
2023-04-05T01:19:31.136Z,22.14
2023-04-05T01:21:36.173Z,22.3
2023-04-05T01:23:41.254Z,22.17
2023-04-05T01:25:46.285Z,22.08
2023-04-05T01:27:51.293Z,22.21
2023-04-05T01:29:56.345Z,22.18
2023-04-05T01:32:01.349Z,22.2
2023-04-05T01:34:06.448Z,22.22
2023-04-05T01:36:11.866Z,22.17
2023-04-05T01:38:16.897Z,22.28
2023-04-05T01:40:21.897Z,22.19
2023-04-05T01:42:26.989Z,22.42
2023-04-05T01:44:32.113Z,22.24
2023-04-05T01:46:37.381Z,22.36
2023-04-05T01:48:42.503Z,22.25
2023-04-05T01:50:47.564Z,22.27
2023-04-05T01:52:52.584Z,22.39
2023-04-05T01:54:57.637Z,22.38
2023-04-05T01:57:02.707Z,22.52
2023-04-05T01:59:08.234Z,22.34
2023-04-05T02:01:13.530Z,22.36
2023-04-05T02:03:19.009Z,22.28
2023-04-05T02:05:24.153Z,22.37
2023-04-05T02:07:29.188Z,22.37
2023-04-05T02:09:34.250Z,22.6
2023-04-05T02:11:39.319Z,22.42
2023-04-05T02:13:44.395Z,22.55
2023-04-05T02:15:49.474Z,22.55
2023-04-05T02:19:42.833Z,22.5
2023-04-05T02:21:47.995Z,22.49
2023-04-05T02:23:53.312Z,22.73
2023-04-05T02:25:58.348Z,22.65
2023-04-05T02:28:03.483Z,22.72
2023-04-05T02:30:08.619Z,22.64
2023-04-05T02:32:13.682Z,22.67
2023-04-05T02:34:18.697Z,22.45
2023-04-05T02:36:23.766Z,22.62
2023-04-05T02:38:28.834Z,22.55
2023-04-05T02:40:33.914Z,22.59
2023-04-05T02:42:38.943Z,22.55
2023-04-05T02:44:43.964Z,22.72
2023-04-05T02:46:49.128Z,22.42
2023-04-05T02:48:54.272Z,22.44
2023-04-05T02:50:59.344Z,22.67
2023-04-05T02:53:04.393Z,22.73
2023-04-05T02:55:09.429Z,22.52
2023-04-05T02:57:14.485Z,22.54
2023-04-05T02:59:19.770Z,22.59
2023-04-05T03:01:25.059Z,22.58
2023-04-05T03:03:30.253Z,22.74
2023-04-05T03:05:35.366Z,22.58
2023-04-05T03:07:40.403Z,22.65
2023-04-05T03:09:45.501Z,22.72
2023-04-05T03:11:50.596Z,22.69
2023-04-05T03:13:55.635Z,22.76
2023-04-05T03:16:00.755Z,22.73
2023-04-05T03:18:05.881Z,22.72
2023-04-05T03:20:10.925Z,22.66
2023-04-05T03:22:15.968Z,22.54
2023-04-05T03:24:20.993Z,22.53
2023-04-05T03:26:26.048Z,22.63
2023-04-05T03:28:31.064Z,22.46
2023-04-05T03:30:36.192Z,22.46
2023-04-05T03:32:41.579Z,22.53
2023-04-05T03:34:46.618Z,22.6
2023-04-05T03:36:51.685Z,22.53
2023-04-05T03:38:56.701Z,22.7
2023-04-05T03:41:01.840Z,22.72
2023-04-05T03:43:06.908Z,24.47
2023-04-05T03:45:11.947Z,23.86
2023-04-05T03:47:17.075Z,24.54
2023-04-05T03:49:22.115Z,24.51
2023-04-05T03:51:27.131Z,24.49
2023-04-05T03:53:32.189Z,24.38
2023-04-05T03:55:37.211Z,24.41
2023-04-05T03:57:42.665Z,24.56
2023-04-05T03:59:47.678Z,24.73
2023-04-05T04:01:52.832Z,24.83
2023-04-05T04:03:57.878Z,25.03
2023-04-05T04:06:03.125Z,25.56
2023-04-05T04:08:08.160Z,25.43
2023-04-05T04:10:13.208Z,25.44
2023-04-05T04:12:18.216Z,25.78
2023-04-05T04:14:23.350Z,26.18
2023-04-05T04:16:31.165Z,26.07
2023-04-05T04:18:36.292Z,26.05
2023-04-05T04:20:41.312Z,26.12
2023-04-05T04:22:46.383Z,26.35
2023-04-05T04:24:51.481Z,26.27
2023-04-05T04:26:56.492Z,26.46
2023-04-05T04:29:01.562Z,26.61
2023-04-05T04:31:06.655Z,26.67
2023-04-05T04:33:12.164Z,26.97
2023-04-05T04:35:17.299Z,26.98
2023-04-05T04:37:22.381Z,27.05
2023-04-05T04:39:27.557Z,27.21
2023-04-05T04:41:32.588Z,27.23
2023-04-05T04:43:37.609Z,27.31
2023-04-05T04:45:43.667Z,27.21
2023-04-05T04:47:48.990Z,27.42
2023-04-05T04:49:54.190Z,27.39
2023-04-05T04:51:59.201Z,27.54
2023-04-05T04:54:04.285Z,27.53
2023-04-05T04:56:09.294Z,27.47
2023-04-05T04:58:14.390Z,27.49
2023-04-05T05:00:19.443Z,27.55
2023-04-05T05:02:24.432Z,27.43
2023-04-05T05:04:29.734Z,27.57
2023-04-05T05:06:34.872Z,27.55
2023-04-05T05:08:39.895Z,27.67
2023-04-05T05:10:45.522Z,27.88
2023-04-05T05:12:50.603Z,27.86
2023-04-05T05:14:55.713Z,27.83
2023-04-05T05:17:01.225Z,27.85
2023-04-05T05:19:06.377Z,27.9
2023-04-05T05:21:11.611Z,27.97
2023-04-05T05:23:16.741Z,28.07
2023-04-05T05:25:21.769Z,28.13
2023-04-05T05:27:26.898Z,28.22
2023-04-05T05:29:31.928Z,28.25
2023-04-05T05:31:37.138Z,28.17
2023-04-05T05:33:42.155Z,28.37
2023-04-05T05:35:47.533Z,28.9
2023-04-05T05:37:52.619Z,28.58
2023-04-05T05:39:57.713Z,28.7
2023-04-05T05:42:02.790Z,28.8
2023-04-05T05:44:07.813Z,28.63
2023-04-05T05:46:12.986Z,29.04
2023-04-05T05:48:18.083Z,28.94
2023-04-05T05:50:23.218Z,28.9
2023-04-05T05:52:28.397Z,28.61
2023-04-05T05:54:33.578Z,28.6
2023-04-05T05:56:38.966Z,28.42
2023-04-05T05:58:43.998Z,28.19
2023-04-05T06:00:51.946Z,28.2
2023-04-05T06:02:57.266Z,28.3
2023-04-05T06:05:02.706Z,28.44
2023-04-05T06:07:08.017Z,28.49
2023-04-05T06:09:13.071Z,28.71
2023-04-05T06:11:18.179Z,28.62
2023-04-05T06:13:23.232Z,28.52
2023-04-05T06:15:28.537Z,28.51
2023-04-05T06:17:33.794Z,28.61
2023-04-05T06:19:38.968Z,28.59
2023-04-05T06:21:44.053Z,28.75
2023-04-05T06:23:49.085Z,28.56
2023-04-05T06:25:54.218Z,28.52
2023-04-05T06:27:59.398Z,28.55
2023-04-05T06:30:04.527Z,28.6
2023-04-05T06:32:09.850Z,28.74
2023-04-05T06:34:14.853Z,28.69
2023-04-05T06:36:19.914Z,28.66
2023-04-05T06:38:25.010Z,28.62
2023-04-05T06:40:30.110Z,28.52
2023-04-05T06:42:35.247Z,28.48
2023-04-05T06:44:40.299Z,28.49
2023-04-05T06:46:45.575Z,28.41
2023-04-05T06:48:50.728Z,28.44
2023-04-05T06:50:55.799Z,28.38
2023-04-05T06:53:00.985Z,28.32
2023-04-05T06:55:06.083Z,28.31
2023-04-05T06:57:11.533Z,28.26
2023-04-05T06:59:17.152Z,28.21
2023-04-05T07:01:22.472Z,28.18
2023-04-05T07:03:27.795Z,28.13
2023-04-05T07:05:33.022Z,28.11
2023-04-05T07:07:38.062Z,28.07
2023-04-05T07:09:43.814Z,28.06
2023-04-05T07:11:48.963Z,28.06
2023-04-05T07:13:54.145Z,28.03
2023-04-05T07:15:59.446Z,28.02
2023-04-05T07:18:04.694Z,27.95
2023-04-05T07:20:09.868Z,27.96
2023-04-05T07:22:14.938Z,27.96
2023-04-05T07:24:20.132Z,28.05
2023-04-05T07:26:25.175Z,28.34
2023-04-05T07:28:30.371Z,28.13
2023-04-05T07:30:35.462Z,28.29
2023-04-05T07:32:41.632Z,27.97
2023-04-05T07:34:46.707Z,28.33
2023-04-05T07:36:51.881Z,28.28
2023-04-05T07:38:57.519Z,27.94
2023-04-05T07:41:02.567Z,28.3
2023-04-05T07:43:07.774Z,28.25
2023-04-05T07:45:12.981Z,28.12
2023-04-05T07:47:18.360Z,28.14
2023-04-05T07:49:23.412Z,28.09
2023-04-05T07:51:28.512Z,27.91
2023-04-05T07:53:34.080Z,27.78
2023-04-05T07:55:39.214Z,27.71
2023-04-05T07:57:44.475Z,27.77
2023-04-05T07:59:49.652Z,27.65
2023-04-05T08:02:12.283Z,27.68
2023-04-05T08:04:19.376Z,27.76
2023-04-05T08:06:24.575Z,27.68
2023-04-05T08:08:29.788Z,27.62
2023-04-05T08:10:34.980Z,27.74
2023-04-05T08:12:41.497Z,27.78
2023-04-05T08:14:46.688Z,27.66
2023-04-05T08:16:51.788Z,27.71
2023-04-05T08:18:56.832Z,27.74
2023-04-05T08:21:02.013Z,27.63
2023-04-05T08:23:07.036Z,27.63
2023-04-05T08:25:12.162Z,27.55
2023-04-05T08:27:17.746Z,27.7
2023-04-05T08:29:23.067Z,27.56
2023-04-05T08:31:28.446Z,27.53
2023-04-05T08:33:33.863Z,27.58
2023-04-05T08:35:39.101Z,27.59
2023-04-05T08:37:44.169Z,27.58
2023-04-05T08:39:49.405Z,27.52
2023-04-05T08:41:54.573Z,27.5
2023-04-05T08:43:59.751Z,27.48
2023-04-05T08:46:05.207Z,27.47
2023-04-05T08:48:10.570Z,27.44
2023-04-05T08:50:15.909Z,27.43
2023-04-05T08:52:21.006Z,27.4
2023-04-05T08:54:26.130Z,27.37
2023-04-05T08:56:31.789Z,27.3
2023-04-05T08:58:36.894Z,27.3
2023-04-05T09:00:42.623Z,27.34
2023-04-05T09:02:48.241Z,27.31
2023-04-05T09:04:53.409Z,27.3
2023-04-05T09:06:59.149Z,27.3
2023-04-05T09:09:04.360Z,27.28
2023-04-05T09:11:09.434Z,27.25
2023-04-05T09:13:14.571Z,27.23
2023-04-05T09:15:19.654Z,27.19
2023-04-05T09:17:24.718Z,27.19
2023-04-05T09:19:29.786Z,27.17
2023-04-05T09:21:34.858Z,27.25
2023-04-05T09:23:39.883Z,27.28
2023-04-05T09:25:45.019Z,27.3
2023-04-05T09:27:50.057Z,27.32
2023-04-05T09:29:55.310Z,27.37
2023-04-05T09:32:00.432Z,27.34
2023-04-05T09:34:05.586Z,27.34
2023-04-05T09:36:10.996Z,27.4
2023-04-05T09:38:16.209Z,27.38
2023-04-05T09:40:21.727Z,27.4
2023-04-05T09:42:26.861Z,27.83
2023-04-05T09:44:32.003Z,27.7
2023-04-05T09:46:37.685Z,27.87
2023-04-05T09:48:42.958Z,28.07
2023-04-05T09:50:48.098Z,28.3
2023-04-05T09:52:53.202Z,28.2
2023-04-05T09:54:58.353Z,28.07
2023-04-05T09:57:03.463Z,27.96
2023-04-05T09:59:08.903Z,27.85
2023-04-05T10:01:19.821Z,27.87
2023-04-05T10:03:25.207Z,27.85
2023-04-05T10:05:30.476Z,27.81
2023-04-05T10:07:35.523Z,27.7
2023-04-05T10:09:40.704Z,27.65
2023-04-05T10:11:45.776Z,27.78
2023-04-05T10:13:50.873Z,27.81
2023-04-05T10:20:49.814Z,29.75
2023-04-05T10:22:54.944Z,29.71
2023-04-05T10:25:00.025Z,29.59
2023-04-05T10:27:05.117Z,29.42
2023-04-05T10:29:10.785Z,29.27
2023-04-05T10:31:39.000Z,29.28
2023-04-05T10:33:45.506Z,29.31
2023-04-05T10:35:50.848Z,29.17
2023-04-05T10:37:56.108Z,29.19
2023-04-05T10:40:01.274Z,29.14
2023-04-05T10:42:06.332Z,29.14
2023-04-05T10:44:28.117Z,29.04
2023-04-05T10:46:33.789Z,28.95
2023-04-05T10:48:38.924Z,28.95
2023-04-05T10:50:44.758Z,28.88
2023-04-05T10:52:50.009Z,28.67
2023-04-05T10:54:55.179Z,28.89
2023-04-05T10:57:00.396Z,28.87
2023-04-05T10:59:05.599Z,28.92
2023-04-05T11:01:11.321Z,28.9
2023-04-05T11:03:16.679Z,28.89
2023-04-05T11:05:21.874Z,28.86
2023-04-05T11:07:27.067Z,28.8
2023-04-05T11:09:32.348Z,28.83
2023-04-05T11:11:37.394Z,28.75
2023-04-05T11:13:42.853Z,28.74
2023-04-05T11:15:48.185Z,28.69
2023-04-05T11:17:53.460Z,28.71
2023-04-05T11:19:59.804Z,28.69
2023-04-05T11:22:04.882Z,28.67
2023-04-05T11:24:10.171Z,28.6
2023-04-05T11:26:15.225Z,28.57
2023-04-05T11:28:20.283Z,28.57
2023-04-05T11:30:25.524Z,28.56
2023-04-05T11:32:30.718Z,28.59
2023-04-05T11:34:36.029Z,28.58
2023-04-05T11:36:41.176Z,28.7
2023-04-05T11:38:46.247Z,28.72
2023-04-05T11:40:51.335Z,28.81
2023-04-05T11:42:56.522Z,29.15
2023-04-05T11:45:01.562Z,29.6
2023-04-05T11:47:06.817Z,30.44
2023-04-05T11:49:12.079Z,30.81
2023-04-05T11:51:17.164Z,30.75
2023-04-05T11:53:22.469Z,30.85
2023-04-05T11:55:27.558Z,30.73
2023-04-05T11:57:32.899Z,30.58
2023-04-05T11:59:38.047Z,30.44
2023-04-05T12:01:43.274Z,30.33
2023-04-05T12:03:49.320Z,30.24
2023-04-05T12:05:54.483Z,30.24
2023-04-05T12:07:59.549Z,30.29
2023-04-05T12:10:05.130Z,30.48
2023-04-05T12:12:10.194Z,30.44
2023-04-05T12:14:15.504Z,30.36
2023-04-05T12:16:20.798Z,30.38
2023-04-05T12:18:25.920Z,30.44
2023-04-05T12:20:30.921Z,30.27
2023-04-05T12:22:35.956Z,30.21
2023-04-05T12:24:40.991Z,30.19
2023-04-05T12:26:46.000Z,30.12
2023-04-05T12:28:51.046Z,30.06
2023-04-05T12:30:56.193Z,29.95
2023-04-05T12:33:01.538Z,30.01
2023-04-05T12:35:06.635Z,29.93
2023-04-05T12:37:11.761Z,29.83
2023-04-05T12:39:17.297Z,29.81
2023-04-05T12:41:22.384Z,29.75
2023-04-05T12:43:27.554Z,29.6
2023-04-05T12:45:32.780Z,29.74
2023-04-05T12:47:37.997Z,29.69
2023-04-05T12:49:43.135Z,29.6
2023-04-05T12:51:48.633Z,29.74
2023-04-05T12:53:53.722Z,29.71
2023-04-05T12:55:58.851Z,29.73
2023-04-05T12:58:04.006Z,29.81
2023-04-05T13:00:09.254Z,29.81
2023-04-05T13:02:14.469Z,29.79
2023-04-05T13:04:20.592Z,29.86
2023-04-05T13:06:25.626Z,29.78
2023-04-05T13:08:30.630Z,29.78
2023-04-05T13:10:35.693Z,29.69
2023-04-05T13:12:40.849Z,29.66
2023-04-05T13:14:46.007Z,29.46
2023-04-05T13:16:51.126Z,29.54
2023-04-05T13:18:56.236Z,29.65
2023-04-05T13:21:01.340Z,29.65
2023-04-05T13:23:06.536Z,29.53
2023-04-05T13:25:11.623Z,29.58
2023-04-05T13:27:16.823Z,29.64
2023-04-05T13:29:22.060Z,29.75
2023-04-05T13:31:27.283Z,29.76
2023-04-05T13:33:32.496Z,29.74
2023-04-05T13:35:37.649Z,29.86
2023-04-05T13:37:42.770Z,29.82
2023-04-05T13:39:47.980Z,29.79
2023-04-05T13:41:52.993Z,29.88
2023-04-05T13:43:59.336Z,29.94
2023-04-05T13:46:06.616Z,29.99
2023-04-05T13:48:12.041Z,29.94
2023-04-05T13:50:17.195Z,30.03
2023-04-05T13:52:22.309Z,29.97
2023-04-05T13:54:27.358Z,30.09
2023-04-05T13:56:32.595Z,30.09
2023-04-05T13:58:37.645Z,30
2023-04-05T14:00:43.832Z,30.11
2023-04-05T14:02:49.443Z,30.13
2023-04-05T14:04:54.731Z,30.11
2023-04-05T14:06:59.846Z,30.15
2023-04-05T14:09:04.996Z,30.23
2023-04-05T14:11:10.103Z,30.16
2023-04-05T14:13:15.200Z,30.27
2023-04-05T14:15:20.290Z,30.45
2023-04-05T14:17:25.598Z,30.57
2023-04-05T14:19:30.662Z,30.08
2023-04-05T14:21:35.736Z,29.52
2023-04-05T14:23:40.978Z,29.92
2023-04-05T14:25:46.121Z,29.66
2023-04-05T14:27:51.266Z,29.75
2023-04-05T14:29:56.301Z,29.54
2023-04-05T14:32:01.719Z,29.47
2023-04-05T14:34:06.824Z,29.49
2023-04-05T14:36:12.031Z,29.62
2023-04-05T14:38:17.540Z,29.51
2023-04-05T14:40:22.880Z,29.42
2023-04-05T14:42:50.466Z,30.02
2023-04-05T14:44:55.695Z,30.03
2023-04-05T14:47:00.817Z,29.81
2023-04-05T14:49:06.038Z,30
2023-04-05T14:51:11.208Z,29.54
2023-04-05T14:53:16.651Z,29.62
2023-04-05T14:55:22.317Z,30
2023-04-05T14:57:27.429Z,29.71
2023-04-05T14:59:32.841Z,29.39
2023-04-05T15:01:38.286Z,29.86
2023-04-05T15:03:43.790Z,30.35
2023-04-05T15:05:48.930Z,30.48
2023-04-05T15:07:54.053Z,30.37
2023-04-05T15:09:59.256Z,30.71
2023-04-05T15:12:04.336Z,31
2023-04-05T15:14:30.964Z,30.92
2023-04-05T15:16:37.114Z,31.06
2023-04-05T15:18:42.322Z,31.24
2023-04-05T15:20:47.438Z,31.2
2023-04-05T15:22:52.586Z,31.21
2023-04-05T15:24:57.801Z,31.24
2023-04-05T15:27:02.954Z,31.39
2023-04-05T15:29:08.158Z,31.48
2023-04-05T15:31:13.509Z,31.54
2023-04-05T15:33:18.687Z,31.62
2023-04-05T15:35:23.893Z,31.6
2023-04-05T15:37:29.096Z,31.6
2023-04-05T15:39:34.195Z,31.67
2023-04-05T15:41:39.343Z,31.5
2023-04-05T15:43:44.572Z,31.74
2023-04-05T15:45:49.855Z,31.76
2023-04-05T15:47:55.124Z,31.74
2023-04-05T15:50:01.063Z,31.69
2023-04-05T15:52:06.523Z,31.78
2023-04-05T15:54:11.729Z,31.72
2023-04-05T15:56:16.838Z,31.81
2023-04-05T15:58:22.021Z,31.86
2023-04-05T16:00:27.106Z,31.79
2023-04-05T16:02:32.247Z,31.69
2023-04-05T16:04:37.396Z,32.1
2023-04-05T16:06:42.646Z,32.19
2023-04-05T16:08:47.853Z,32.21
2023-04-05T16:10:52.883Z,32.22
2023-04-05T16:12:58.071Z,31.65
2023-04-05T16:15:03.303Z,31.98
2023-04-05T16:17:08.734Z,32.03
2023-04-05T16:19:13.968Z,31.95
2023-04-05T16:21:19.031Z,32.07
2023-04-05T16:23:24.349Z,32.12
2023-04-05T16:25:29.459Z,32.09
2023-04-05T16:27:34.600Z,32.06
2023-04-05T16:29:40.411Z,32.02
2023-04-05T16:31:45.720Z,31.93
2023-04-05T16:33:50.903Z,31.9
2023-04-05T16:35:56.311Z,31.81
2023-04-05T16:38:01.582Z,31.86
2023-04-05T16:40:06.688Z,32.1
2023-04-05T16:42:11.885Z,32.13
2023-04-05T16:44:17.118Z,32.34
2023-04-05T16:46:22.382Z,32.16
2023-04-05T16:48:27.640Z,32.28
2023-04-05T16:50:32.740Z,32.17
2023-04-05T16:52:37.853Z,32.18
2023-04-05T16:54:42.989Z,32.11
2023-04-05T16:56:48.066Z,32.22
2023-04-05T16:58:53.366Z,32.2
2023-04-05T17:00:58.607Z,32.32
2023-04-05T17:03:04.148Z,32.3
2023-04-05T17:05:09.713Z,32.33
2023-04-05T17:07:14.861Z,32.52
2023-04-05T17:09:20.002Z,32.15
2023-04-05T17:11:25.202Z,32.13
2023-04-05T17:13:30.532Z,32.28
2023-04-05T17:15:35.707Z,31.58
2023-04-05T17:17:41.080Z,32.04
2023-04-05T17:19:46.455Z,31.97
2023-04-05T17:21:51.555Z,32.23
2023-04-05T17:23:56.653Z,32.27
2023-04-05T17:26:01.882Z,32.39
2023-04-05T17:28:07.101Z,32.5
2023-04-05T17:30:12.362Z,31.78
2023-04-05T17:32:17.487Z,31.96
2023-04-05T17:34:22.628Z,32.09
2023-04-05T17:36:27.696Z,32.25
2023-04-05T17:38:32.791Z,32.17
2023-04-05T17:40:38.099Z,32.13
2023-04-05T17:42:43.214Z,32.03
2023-04-05T17:44:48.271Z,31.91
2023-04-05T17:47:10.948Z,31.98
2023-04-05T17:49:16.284Z,31.94
2023-04-05T17:51:21.513Z,31.96
2023-04-05T17:53:26.668Z,31.98
2023-04-05T17:55:34.713Z,32.04
2023-04-05T17:57:39.754Z,32.12
2023-04-05T17:59:45.533Z,32.11
2023-04-05T18:01:51.531Z,32.12
2023-04-05T18:03:57.196Z,32.1
2023-04-05T18:06:02.434Z,32.16
2023-04-05T18:08:07.543Z,32.14
2023-04-05T18:10:12.656Z,32.1
2023-04-05T18:12:17.844Z,32.08
2023-04-05T18:14:23.188Z,32.43
2023-04-05T18:16:28.569Z,32.46
2023-04-05T18:18:33.640Z,32.24
2023-04-05T18:20:38.673Z,32.12
2023-04-05T18:22:43.756Z,32.09
2023-04-05T18:24:49.004Z,31.71
2023-04-05T18:26:54.073Z,31.65
2023-04-05T18:28:59.104Z,31.33
2023-04-05T18:31:04.187Z,31.33
2023-04-05T18:33:09.538Z,31.24
2023-04-05T18:35:14.724Z,31.46
2023-04-05T18:37:19.854Z,31.84
2023-04-05T18:39:27.653Z,31.72
2023-04-05T18:41:32.925Z,31.94
2023-04-05T18:43:38.062Z,32.03
2023-04-05T18:45:43.481Z,31.67
2023-04-05T18:47:48.685Z,31.54
2023-04-05T18:49:53.799Z,31.45
2023-04-05T18:51:58.854Z,31.52
2023-04-05T18:54:03.966Z,31.56
2023-04-05T18:56:09.061Z,31.39
2023-04-05T18:58:14.245Z,31.6
2023-04-05T19:00:19.316Z,31.45
2023-04-05T19:02:24.793Z,31.44
2023-04-05T19:04:29.981Z,31.28
2023-04-05T19:06:35.172Z,31.54
2023-04-05T19:08:40.243Z,31.81
2023-04-05T19:10:45.417Z,31.9
2023-04-05T19:12:50.483Z,31.96
2023-04-05T19:14:55.625Z,32.12
2023-04-05T19:17:00.731Z,32.29
2023-04-05T19:19:06.242Z,32.42
2023-04-05T19:21:11.658Z,32.52
2023-04-05T19:23:16.733Z,32.38
2023-04-05T19:25:21.910Z,32.43
2023-04-05T19:27:27.009Z,32.48
2023-04-05T19:29:32.104Z,32.74
2023-04-05T19:31:37.383Z,32.63
2023-04-05T19:33:42.470Z,32.05
2023-04-05T19:35:47.705Z,31.39
2023-04-05T19:37:52.809Z,32.08
2023-04-05T19:39:57.918Z,32.33
2023-04-05T19:42:03.061Z,32.47
2023-04-05T19:44:08.121Z,32.46
2023-04-05T19:46:13.481Z,32.84
2023-04-05T19:48:18.631Z,32.71
2023-04-05T19:50:31.113Z,32.34
2023-04-05T19:52:36.295Z,32.11
2023-04-05T19:54:41.548Z,32.47
2023-04-05T19:56:46.742Z,32.41
2023-04-05T19:58:52.021Z,32.77
2023-04-05T20:00:57.247Z,32.41
2023-04-05T20:03:02.546Z,32.3
2023-04-05T20:05:07.663Z,31.85
2023-04-05T20:07:12.737Z,31.64
2023-04-05T20:09:17.804Z,31.58
2023-04-05T20:11:22.917Z,31.61
2023-04-05T20:13:27.972Z,31.41
2023-04-05T20:15:33.172Z,31.04
2023-04-05T20:17:38.374Z,31.14
2023-04-05T20:19:43.548Z,31.31
2023-04-05T20:21:48.676Z,31.14
2023-04-05T20:23:53.775Z,31.19
2023-04-05T20:25:58.873Z,31.18
2023-04-05T20:28:04.010Z,31.05
2023-04-05T20:30:09.178Z,31.13
2023-04-05T20:32:14.381Z,31.04
2023-04-05T20:34:19.427Z,29.41
2023-04-05T20:36:24.542Z,30.07
2023-04-05T20:38:29.619Z,30.39
2023-04-05T20:40:34.701Z,30.48
2023-04-05T20:42:39.898Z,30.59
2023-04-05T20:44:44.982Z,30.56
2023-04-05T20:46:50.012Z,30.74
2023-04-05T20:48:55.057Z,30.8
2023-04-05T20:51:00.281Z,30.9
2023-04-05T20:53:05.414Z,31.08
2023-04-05T20:55:10.563Z,31.31
2023-04-05T20:57:15.711Z,31.17
2023-04-05T20:59:21.036Z,31.12
2023-04-05T21:01:26.441Z,31.34
2023-04-05T21:03:32.001Z,31.33
2023-04-05T21:05:37.271Z,31.19
2023-04-05T21:07:42.344Z,31.22
2023-04-05T21:09:47.436Z,31.44
2023-04-05T21:11:52.561Z,31.71
2023-04-05T21:13:57.602Z,31.5
2023-04-05T21:16:02.988Z,31.47
2023-04-05T21:18:08.580Z,31.51
2023-04-05T21:20:13.786Z,31.81
2023-04-05T21:22:18.879Z,31.85
2023-04-05T21:24:23.955Z,31.55
2023-04-05T21:26:29.138Z,31.76
2023-04-05T21:28:34.245Z,31.76
2023-04-05T21:30:39.365Z,31.94
2023-04-05T21:32:44.561Z,29.02
2023-04-05T21:34:49.595Z,26.45
2023-04-05T21:36:54.692Z,26.74
2023-04-05T21:38:59.753Z,26.69
2023-04-05T21:41:04.895Z,26.86
2023-04-05T21:43:09.957Z,25.64
2023-04-05T21:45:15.275Z,24.9
2023-04-05T21:47:20.367Z,25.03
2023-04-05T21:49:25.493Z,24.7
2023-04-05T21:51:30.605Z,25.26
2023-04-05T21:53:35.700Z,25.16
2023-04-05T21:55:40.812Z,25.44
2023-04-05T21:57:46.172Z,25.02
2023-04-05T21:59:51.333Z,24.58
2023-04-05T22:01:56.530Z,24.85
2023-04-05T22:04:01.754Z,24.99
2023-04-05T22:06:07.351Z,25.05
2023-04-05T22:08:13.530Z,24.76
2023-04-05T22:10:18.789Z,24.85
2023-04-05T22:12:23.836Z,24.62
2023-04-05T22:14:28.908Z,24.61
2023-04-05T22:16:34.179Z,24.88
2023-04-05T22:18:39.242Z,24.67
2023-04-05T22:20:44.344Z,24.57
2023-04-05T22:22:49.486Z,24.4
2023-04-05T22:24:54.560Z,24.38
2023-04-05T22:26:59.625Z,24.1
2023-04-05T22:29:04.983Z,23.83
2023-04-05T22:31:10.149Z,23.56
2023-04-05T22:33:15.805Z,23.44
2023-04-05T22:35:20.865Z,23.73
2023-04-05T22:37:25.972Z,23.88
2023-04-05T22:39:31.003Z,23.5
2023-04-05T22:41:36.028Z,23.55
2023-04-05T22:43:41.082Z,23.27
2023-04-05T22:45:46.922Z,23.27
2023-04-05T22:47:53.192Z,23.12
2023-04-05T22:49:58.363Z,23.23
2023-04-05T22:52:03.422Z,23.11
2023-04-05T22:54:08.484Z,22.97
2023-04-05T22:56:13.556Z,23.17
2023-04-05T22:58:18.789Z,22.93
2023-04-05T23:00:23.832Z,22.85
2023-04-05T23:02:28.909Z,22.55
2023-04-05T23:04:34.236Z,22.79
2023-04-05T23:06:39.373Z,22.65
2023-04-05T23:08:44.387Z,22.55
2023-04-05T23:10:49.587Z,22.49
2023-04-05T23:12:54.754Z,23.05
2023-04-05T23:14:59.828Z,22.67
2023-04-05T23:17:04.954Z,22.51
2023-04-05T23:19:11.060Z,22.86
2023-04-05T23:21:16.381Z,22.7
2023-04-05T23:23:21.420Z,22.69
2023-04-05T23:25:26.597Z,22.44
2023-04-05T23:27:31.668Z,22.55
2023-04-05T23:29:36.832Z,22.18
2023-04-05T23:31:47.814Z,22.35
2023-04-05T23:33:54.144Z,22.52
2023-04-05T23:35:59.305Z,22.31
2023-04-05T23:38:04.506Z,22.55
2023-04-05T23:40:09.666Z,22.31
2023-04-05T23:42:14.828Z,22.52
2023-04-05T23:44:19.966Z,22.37
2023-04-05T23:46:25.216Z,22.21
2023-04-05T23:48:30.399Z,22.3
2023-04-05T23:50:35.609Z,22.67
2023-04-05T23:52:40.885Z,22.23
2023-04-05T23:54:45.985Z,22.31
2023-04-05T23:56:51.067Z,22.64
2023-04-05T23:58:56.240Z,22.47
